sensor_id;sensor_type;location;lat;lon;timestamp;pressure;altitude;pressure_sealevel;temperature;humidity
44140;BME280;29803;51.048;4.686;2023-04-06T00:01:36;101778.06;;;1.89;100.00
44140;BME280;29803;51.048;4.686;2023-04-06T00:04:07;101777.13;;;1.90;100.00
44140;BME280;29803;51.048;4.686;2023-04-06T00:06:37;101779.78;;;1.90;100.00
44140;BME280;29803;51.048;4.686;2023-04-06T00:09:08;101769.38;;;1.87;100.00
44140;BME280;29803;51.048;4.686;2023-04-06T00:11:38;101773.03;;;1.85;100.00
44140;BME280;29803;51.048;4.686;2023-04-06T00:14:09;101760.66;;;1.85;100.00
44140;BME280;29803;51.048;4.686;2023-04-06T00:16:39;101758.22;;;1.82;100.00
44140;BME280;29803;51.048;4.686;2023-04-06T00:19:10;101764.50;;;1.79;100.00
44140;BME280;29803;51.048;4.686;2023-04-06T00:21:40;101762.81;;;1.78;100.00
44140;BME280;29803;51.048;4.686;2023-04-06T00:24:11;101756.78;;;1.76;100.00
44140;BME280;29803;51.048;4.686;2023-04-06T00:26:41;101752.41;;;1.75;100.00
44140;BME280;29803;51.048;4.686;2023-04-06T00:29:12;101749.75;;;1.75;100.00
44140;BME280;29803;51.048;4.686;2023-04-06T00:31:42;101756.78;;;1.76;100.00
44140;BME280;29803;51.048;4.686;2023-04-06T00:34:13;101749.75;;;1.75;100.00
44140;BME280;29803;51.048;4.686;2023-04-06T00:36:46;101749.84;;;1.74;100.00
44140;BME280;29803;51.048;4.686;2023-04-06T00:39:16;101745.59;;;1.71;100.00
44140;BME280;29803;51.048;4.686;2023-04-06T00:41:50;101745.59;;;1.71;100.00
44140;BME280;29803;51.048;4.686;2023-04-06T00:44:21;101752.59;;;1.72;100.00
44140;BME280;29803;51.048;4.686;2023-04-06T00:46:52;101728.88;;;1.71;100.00
44140;BME280;29803;51.048;4.686;2023-04-06T00:49:23;101735.78;;;1.73;100.00
44140;BME280;29803;51.048;4.686;2023-04-06T00:51:53;101735.69;;;1.75;100.00
44140;BME280;29803;51.048;4.686;2023-04-06T00:54:24;101732.13;;;1.76;100.00
44140;BME280;29803;51.048;4.686;2023-04-06T00:56:55;101733.72;;;1.78;100.00
44140;BME280;29803;51.048;4.686;2023-04-06T00:59:27;101723.88;;;1.80;100.00
44140;BME280;29803;51.048;4.686;2023-04-06T01:01:58;101731.66;;;1.84;100.00
44140;BME280;29803;51.048;4.686;2023-04-06T01:04:29;101726.25;;;1.85;100.00
44140;BME280;29803;51.048;4.686;2023-04-06T01:07:00;101718.16;;;1.88;100.00
44140;BME280;29803;51.048;4.686;2023-04-06T01:09:31;101720.72;;;1.90;100.00
44140;BME280;29803;51.048;4.686;2023-04-06T01:12:02;101715.34;;;1.91;100.00
44140;BME280;29803;51.048;4.686;2023-04-06T01:14:33;101710.91;;;1.92;100.00
44140;BME280;29803;51.048;4.686;2023-04-06T01:17:04;101704.56;;;1.94;100.00
44140;BME280;29803;51.048;4.686;2023-04-06T01:19:36;101702.59;;;1.98;100.00
44140;BME280;29803;51.048;4.686;2023-04-06T01:22:07;101697.22;;;1.99;100.00
44140;BME280;29803;51.048;4.686;2023-04-06T01:24:37;101703.34;;;2.00;100.00
44140;BME280;29803;51.048;4.686;2023-04-06T01:27:08;101701.50;;;2.02;100.00
44140;BME280;29803;51.048;4.686;2023-04-06T01:29:39;101695.25;;;2.03;100.00
44140;BME280;29803;51.048;4.686;2023-04-06T01:32:11;101699.69;;;2.02;100.00
44140;BME280;29803;51.048;4.686;2023-04-06T01:34:42;101696.94;;;2.04;100.00
44140;BME280;29803;51.048;4.686;2023-04-06T01:37:12;101690.53;;;2.08;100.00
44140;BME280;29803;51.048;4.686;2023-04-06T01:39:43;101692.91;;;2.13;100.00
44140;BME280;29803;51.048;4.686;2023-04-06T01:42:14;101683.84;;;2.17;100.00
44140;BME280;29803;51.048;4.686;2023-04-06T01:44:44;101687.25;;;2.19;100.00
44140;BME280;29803;51.048;4.686;2023-04-06T01:47:15;101688.88;;;2.21;100.00
44140;BME280;29803;51.048;4.686;2023-04-06T01:49:46;101683.47;;;2.23;100.00
44140;BME280;29803;51.048;4.686;2023-04-06T01:52:16;101678.28;;;2.21;100.00
44140;BME280;29803;51.048;4.686;2023-04-06T01:54:47;101671.19;;;2.22;100.00
44140;BME280;29803;51.048;4.686;2023-04-06T01:57:17;101679.13;;;2.22;100.00
44140;BME280;29803;51.048;4.686;2023-04-06T01:59:48;101681.78;;;2.22;100.00
44140;BME280;29803;51.048;4.686;2023-04-06T02:02:18;101669.38;;;2.22;100.00
44140;BME280;29803;51.048;4.686;2023-04-06T02:04:49;101668.44;;;2.23;100.00
44140;BME280;29803;51.048;4.686;2023-04-06T02:07:20;101663.03;;;2.25;100.00
44140;BME280;29803;51.048;4.686;2023-04-06T02:09:54;101665.34;;;2.31;100.00
44140;BME280;29803;51.048;4.686;2023-04-06T02:12:45;101657.09;;;2.36;100.00
44140;BME280;29803;51.048;4.686;2023-04-06T02:15:19;101653.25;;;2.41;100.00
44140;BME280;29803;51.048;4.686;2023-04-06T02:17:51;101653.97;;;2.43;100.00
44140;BME280;29803;51.048;4.686;2023-04-06T02:20:22;101651.22;;;2.45;100.00
44140;BME280;29803;51.048;4.686;2023-04-06T02:22:52;101644.97;;;2.46;100.00
44140;BME280;29803;51.048;4.686;2023-04-06T02:25:23;101646.72;;;2.47;100.00
44140;BME280;29803;51.048;4.686;2023-04-06T02:27:54;101647.34;;;2.50;100.00
44140;BME280;29803;51.048;4.686;2023-04-06T02:30:31;101646.31;;;2.53;100.00
44140;BME280;29803;51.048;4.686;2023-04-06T02:33:02;101649.72;;;2.55;100.00
44140;BME280;29803;51.048;4.686;2023-04-06T02:35:33;101644.34;;;2.56;100.00
44140;BME280;29803;51.048;4.686;2023-04-06T02:38:04;101639.03;;;2.56;100.00
44140;BME280;29803;51.048;4.686;2023-04-06T02:40:34;101634.59;;;2.57;100.00
44140;BME280;29803;51.048;4.686;2023-04-06T02:43:05;101635.50;;;2.56;100.00
44140;BME280;29803;51.048;4.686;2023-04-06T02:45:35;101631.09;;;2.56;100.00
44140;BME280;29803;51.048;4.686;2023-04-06T02:48:06;101634.59;;;2.57;100.00
44140;BME280;29803;51.048;4.686;2023-04-06T02:50:36;101635.44;;;2.57;100.00
44140;BME280;29803;51.048;4.686;2023-04-06T02:53:07;101634.59;;;2.57;100.00
44140;BME280;29803;51.048;4.686;2023-04-06T02:55:37;101638.16;;;2.56;100.00
44140;BME280;29803;51.048;4.686;2023-04-06T02:58:08;101626.81;;;2.54;100.00
44140;BME280;29803;51.048;4.686;2023-04-06T03:00:38;101621.53;;;2.54;100.00
44140;BME280;29803;51.048;4.686;2023-04-06T03:03:09;101619.84;;;2.53;100.00
44140;BME280;29803;51.048;4.686;2023-04-06T03:05:39;101628.72;;;2.52;100.00
44140;BME280;29803;51.048;4.686;2023-04-06T03:08:10;101612.84;;;2.52;100.00
44140;BME280;29803;51.048;4.686;2023-04-06T03:10:40;101613.75;;;2.51;100.00
44140;BME280;29803;51.048;4.686;2023-04-06T03:13:11;101612.72;;;2.53;100.00
44140;BME280;29803;51.048;4.686;2023-04-06T03:15:41;101611.88;;;2.53;100.00
44140;BME280;29803;51.048;4.686;2023-04-06T03:18:12;101609.13;;;2.54;100.00
44140;BME280;29803;51.048;4.686;2023-04-06T03:20:43;101608.19;;;2.55;100.00
44140;BME280;29803;51.048;4.686;2023-04-06T03:23:13;101602.81;;;2.57;100.00
44140;BME280;29803;51.048;4.686;2023-04-06T03:25:43;101604.41;;;2.59;100.00
44140;BME280;29803;51.048;4.686;2023-04-06T03:28:15;101604.31;;;2.61;100.00
44140;BME280;29803;51.048;4.686;2023-04-06T03:30:46;101597.13;;;2.63;100.00
44140;BME280;29803;51.048;4.686;2023-04-06T03:33:16;101595.22;;;2.65;100.00
44140;BME280;29803;51.048;4.686;2023-04-06T03:35:47;101597.84;;;2.65;100.00
44140;BME280;29803;51.048;4.686;2023-04-06T03:38:17;101592.47;;;2.67;100.00
44140;BME280;29803;51.048;4.686;2023-04-06T03:40:48;101598.63;;;2.67;100.00
44140;BME280;29803;51.048;4.686;2023-04-06T03:43:18;101596.72;;;2.69;100.00
44140;BME280;29803;51.048;4.686;2023-04-06T03:45:49;101590.41;;;2.72;100.00
44140;BME280;29803;51.048;4.686;2023-04-06T03:48:20;101588.47;;;2.74;100.00
44140;BME280;29803;51.048;4.686;2023-04-06T03:50:50;101593.59;;;2.77;100.00
44140;BME280;29803;51.048;4.686;2023-04-06T03:53:21;101585.66;;;2.77;100.00
44140;BME280;29803;51.048;4.686;2023-04-06T03:55:51;101588.19;;;2.78;100.00
44140;BME280;29803;51.048;4.686;2023-04-06T03:58:21;101583.63;;;2.80;100.00
44140;BME280;29803;51.048;4.686;2023-04-06T04:00:52;101583.63;;;2.80;100.00
44140;BME280;29803;51.048;4.686;2023-04-06T04:03:22;101584.41;;;2.82;100.00
44140;BME280;29803;51.048;4.686;2023-04-06T04:05:57;101585.16;;;2.84;100.00
44140;BME280;29803;51.048;4.686;2023-04-06T04:08:27;101590.44;;;2.84;100.00
44140;BME280;29803;51.048;4.686;2023-04-06T04:10:58;101593.94;;;2.85;100.00
44140;BME280;29803;51.048;4.686;2023-04-06T04:13:28;101585.91;;;2.87;100.00
44140;BME280;29803;51.048;4.686;2023-04-06T04:15:59;101590.25;;;2.88;100.00
44140;BME280;29803;51.048;4.686;2023-04-06T04:18:30;101590.16;;;2.89;100.00
44140;BME280;29803;51.048;4.686;2023-04-06T04:21:00;101587.31;;;2.92;100.00
44140;BME280;29803;51.048;4.686;2023-04-06T04:23:31;101592.41;;;2.95;100.00
44140;BME280;29803;51.048;4.686;2023-04-06T04:26:01;101593.25;;;2.96;100.00
44140;BME280;29803;51.048;4.686;2023-04-06T04:28:32;101593.91;;;2.99;100.00
44140;BME280;29803;51.048;4.686;2023-04-06T04:31:03;101589.38;;;3.01;100.00
44140;BME280;29803;51.048;4.686;2023-04-06T04:33:33;101594.47;;;3.04;100.00
44140;BME280;29803;51.048;4.686;2023-04-06T04:36:04;101598.63;;;3.08;100.00
44140;BME280;29803;51.048;4.686;2023-04-06T04:38:35;101601.94;;;3.12;100.00
44140;BME280;29803;51.048;4.686;2023-04-06T04:41:05;101596.34;;;3.17;100.00
44140;BME280;29803;51.048;4.686;2023-04-06T04:43:36;101595.25;;;3.19;100.00
44140;BME280;29803;51.048;4.686;2023-04-06T04:46:06;101596.66;;;3.25;100.00
44140;BME280;29803;51.048;4.686;2023-04-06T04:48:37;101588.41;;;3.29;100.00
44140;BME280;29803;51.048;4.686;2023-04-06T04:51:07;101586.53;;;3.31;100.00
44140;BME280;29803;51.048;4.686;2023-04-06T04:53:38;101591.72;;;3.33;100.00
44140;BME280;29803;51.048;4.686;2023-04-06T04:56:08;101594.38;;;3.33;100.00
44140;BME280;29803;51.048;4.686;2023-04-06T04:58:39;101590.94;;;3.31;100.00
44140;BME280;29803;51.048;4.686;2023-04-06T05:01:09;101593.59;;;3.31;100.00
44140;BME280;29803;51.048;4.686;2023-04-06T05:03:40;101593.53;;;3.32;100.00
44140;BME280;29803;51.048;4.686;2023-04-06T05:06:11;101600.34;;;3.36;100.00
44140;BME280;29803;51.048;4.686;2023-04-06T05:08:42;101598.22;;;3.42;100.00
44140;BME280;29803;51.048;4.686;2023-04-06T05:11:13;101595.34;;;3.45;100.00
44140;BME280;29803;51.048;4.686;2023-04-06T05:13:43;101595.78;;;3.51;100.00
44140;BME280;29803;51.048;4.686;2023-04-06T05:16:14;101588.34;;;3.56;100.00
44140;BME280;29803;51.048;4.686;2023-04-06T05:18:44;101590.09;;;3.57;100.00
44140;BME280;29803;51.048;4.686;2023-04-06T05:21:15;101592.75;;;3.57;100.00
44140;BME280;29803;51.048;4.686;2023-04-06T05:23:46;101589.13;;;3.58;100.00
44140;BME280;29803;51.048;4.686;2023-04-06T05:26:16;101589.13;;;3.58;100.00
44140;BME280;29803;51.048;4.686;2023-04-06T05:28:47;101586.34;;;3.60;100.00
44140;BME280;29803;51.048;4.686;2023-04-06T05:31:17;101588.81;;;3.63;100.00
44140;BME280;29803;51.048;4.686;2023-04-06T05:33:48;101596.47;;;3.68;100.00
44140;BME280;29803;51.048;4.686;2023-04-06T05:36:18;101598.81;;;3.72;100.00
44140;BME280;29803;51.048;4.686;2023-04-06T05:38:49;101597.75;;;3.75;100.00
44140;BME280;29803;51.048;4.686;2023-04-06T05:41:20;101598.41;;;3.78;100.00
44140;BME280;29803;51.048;4.686;2023-04-06T05:43:51;101594.59;;;3.82;100.00
44140;BME280;29803;51.048;4.686;2023-04-06T05:46:21;101583.75;;;3.85;100.00
44140;BME280;29803;51.048;4.686;2023-04-06T05:48:52;101584.19;;;3.92;100.00
44140;BME280;29803;51.048;4.686;2023-04-06T05:51:22;101586.31;;;4.00;100.00
44140;BME280;29803;51.048;4.686;2023-04-06T05:53:53;101583.97;;;4.08;100.00
44140;BME280;29803;51.048;4.686;2023-04-06T05:56:23;101593.31;;;4.13;100.00
44140;BME280;29803;51.048;4.686;2023-04-06T05:58:55;101588.00;;;4.13;100.00
44140;BME280;29803;51.048;4.686;2023-04-06T06:01:25;101590.44;;;4.16;100.00
44140;BME280;29803;51.048;4.686;2023-04-06T06:03:56;101589.19;;;4.22;100.00
44140;BME280;29803;51.048;4.686;2023-04-06T06:06:27;101592.25;;;4.29;100.00
44140;BME280;29803;51.048;4.686;2023-04-06T06:08:58;101594.78;;;4.43;100.00
44140;BME280;29803;51.048;4.686;2023-04-06T06:11:30;101585.63;;;4.60;100.00
44140;BME280;29803;51.048;4.686;2023-04-06T06:14:01;101590.66;;;4.76;100.00
44140;BME280;29803;51.048;4.686;2023-04-06T06:16:32;101588.00;;;4.88;100.00
44140;BME280;29803;51.048;4.686;2023-04-06T06:19:03;101588.91;;;5.00;100.00
44140;BME280;29803;51.048;4.686;2023-04-06T06:21:34;101583.53;;;5.13;100.00
44140;BME280;29803;51.048;4.686;2023-04-06T06:24:06;101581.78;;;5.25;100.00
44140;BME280;29803;51.048;4.686;2023-04-06T06:26:37;101576.28;;;5.39;100.00
44140;BME280;29803;51.048;4.686;2023-04-06T06:29:09;101585.00;;;5.52;100.00
44140;BME280;29803;51.048;4.686;2023-04-06T06:31:40;101588.72;;;5.62;100.00
44140;BME280;29803;51.048;4.686;2023-04-06T06:34:10;101584.97;;;5.76;100.00
44140;BME280;29803;51.048;4.686;2023-04-06T06:36:43;101589.59;;;5.85;100.00
44140;BME280;29803;51.048;4.686;2023-04-06T06:39:13;101576.34;;;5.96;100.00
44140;BME280;29803;51.048;4.686;2023-04-06T06:41:43;101582.91;;;6.04;100.00
44140;BME280;29803;51.048;4.686;2023-04-06T06:44:14;101586.91;;;6.09;100.00
44140;BME280;29803;51.048;4.686;2023-04-06T06:46:47;101590.06;;;6.14;100.00
44140;BME280;29803;51.048;4.686;2023-04-06T06:49:17;101586.06;;;6.20;100.00
44140;BME280;29803;51.048;4.686;2023-04-06T06:51:48;101589.56;;;6.20;100.00
44140;BME280;29803;51.048;4.686;2023-04-06T06:54:19;101586.56;;;6.25;100.00
44140;BME280;29803;51.048;4.686;2023-04-06T06:56:49;101587.03;;;6.30;100.00
44140;BME280;29803;51.048;4.686;2023-04-06T06:59:20;101583.16;;;6.34;100.00
44140;BME280;29803;51.048;4.686;2023-04-06T07:01:51;101583.03;;;6.36;100.00
44140;BME280;29803;51.048;4.686;2023-04-06T07:04:21;101586.31;;;6.39;100.00
44140;BME280;29803;51.048;4.686;2023-04-06T07:06:52;101584.97;;;6.45;100.00
44140;BME280;29803;51.048;4.686;2023-04-06T07:09:22;101587.28;;;6.49;100.00
44140;BME280;29803;51.048;4.686;2023-04-06T07:11:53;101580.00;;;6.52;100.00
44140;BME280;29803;51.048;4.686;2023-04-06T07:14:24;101581.47;;;6.56;100.00
44140;BME280;29803;51.048;4.686;2023-04-06T07:16:54;101583.41;;;6.65;100.00
44140;BME280;29803;51.048;4.686;2023-04-06T07:19:25;101585.56;;;6.71;100.00
44140;BME280;29803;51.048;4.686;2023-04-06T07:21:55;101582.28;;;6.79;100.00
44140;BME280;29803;51.048;4.686;2023-04-06T07:24:26;101581.69;;;6.75;100.00
44140;BME280;29803;51.048;4.686;2023-04-06T07:26:58;101579.50;;;6.80;100.00
44140;BME280;29803;51.048;4.686;2023-04-06T07:29:30;101589.19;;;6.81;100.00
44140;BME280;29803;51.048;4.686;2023-04-06T07:32:01;101588.22;;;6.71;100.00
44140;BME280;29803;51.048;4.686;2023-04-06T07:34:31;101585.81;;;6.68;100.00
44140;BME280;29803;51.048;4.686;2023-04-06T07:37:02;101581.94;;;6.61;100.00
44140;BME280;29803;51.048;4.686;2023-04-06T07:39:33;101587.78;;;6.55;100.00
44140;BME280;29803;51.048;4.686;2023-04-06T07:42:04;101595.06;;;6.53;100.00
44140;BME280;29803;51.048;4.686;2023-04-06T07:44:35;101588.00;;;6.52;100.00
44140;BME280;29803;51.048;4.686;2023-04-06T07:47:05;101586.78;;;6.56;100.00
44140;BME280;29803;51.048;4.686;2023-04-06T07:49:36;101592.72;;;6.59;100.00
44140;BME280;29803;51.048;4.686;2023-04-06T07:52:06;101588.59;;;6.66;100.00
44140;BME280;29803;51.048;4.686;2023-04-06T07:54:37;101594.66;;;6.68;100.00
44140;BME280;29803;51.048;4.686;2023-04-06T07:57:07;101595.38;;;6.70;100.00
44140;BME280;29803;51.048;4.686;2023-04-06T07:59:38;101581.44;;;6.67;100.00
44140;BME280;29803;51.048;4.686;2023-04-06T08:02:08;101600.22;;;6.77;100.00
44140;BME280;29803;51.048;4.686;2023-04-06T08:04:39;101592.72;;;6.70;100.00
44140;BME280;29803;51.048;4.686;2023-04-06T08:07:10;101586.41;;;6.71;100.00
44140;BME280;29803;51.048;4.686;2023-04-06T08:09:40;101584.34;;;6.75;100.00
44140;BME280;29803;51.048;4.686;2023-04-06T08:12:11;101587.41;;;6.59;100.00
44140;BME280;29803;51.048;4.686;2023-04-06T08:14:41;101588.72;;;6.65;100.00
44140;BME280;29803;51.048;4.686;2023-04-06T08:17:12;101591.75;;;6.71;100.00
44140;BME280;29803;51.048;4.686;2023-04-06T08:19:43;101586.31;;;6.73;100.00
44140;BME280;29803;51.048;4.686;2023-04-06T08:22:14;101587.50;;;6.80;100.00
44140;BME280;29803;51.048;4.686;2023-04-06T08:24:45;101589.56;;;6.88;100.00
44140;BME280;29803;51.048;4.686;2023-04-06T08:27:15;101596.91;;;6.95;100.00
44140;BME280;29803;51.048;4.686;2023-04-06T08:29:46;101589.88;;;7.06;100.00
44140;BME280;29803;51.048;4.686;2023-04-06T08:32:17;101597.25;;;7.13;100.00
44140;BME280;29803;51.048;4.686;2023-04-06T08:34:48;101593.59;;;7.14;100.00
44140;BME280;29803;51.048;4.686;2023-04-06T08:37:18;101596.66;;;7.10;100.00
44140;BME280;29803;51.048;4.686;2023-04-06T08:39:49;101598.34;;;7.11;100.00
44140;BME280;29803;51.048;4.686;2023-04-06T08:42:21;101599.78;;;7.15;100.00
44140;BME280;29803;51.048;4.686;2023-04-06T08:44:52;101593.50;;;7.05;100.00
44140;BME280;29803;51.048;4.686;2023-04-06T08:47:23;101587.91;;;7.08;100.00
44140;BME280;29803;51.048;4.686;2023-04-06T08:49:54;101598.88;;;6.93;100.00
44140;BME280;29803;51.048;4.686;2023-04-06T08:52:26;101593.00;;;7.11;100.00
44140;BME280;29803;51.048;4.686;2023-04-06T08:54:57;101593.13;;;7.09;100.00
44140;BME280;29803;51.048;4.686;2023-04-06T08:57:28;101587.44;;;7.14;100.00
44140;BME280;29803;51.048;4.686;2023-04-06T09:00:00;101587.63;;;7.22;100.00
44140;BME280;29803;51.048;4.686;2023-04-06T09:02:31;101590.44;;;7.20;100.00
44140;BME280;29803;51.048;4.686;2023-04-06T09:05:02;101595.38;;;7.25;100.00
44140;BME280;29803;51.048;4.686;2023-04-06T09:07:33;101592.59;;;7.26;100.00
44140;BME280;29803;51.048;4.686;2023-04-06T09:10:05;101585.94;;;7.21;100.00
44140;BME280;29803;51.048;4.686;2023-04-06T09:12:36;101594.88;;;7.31;100.00
44140;BME280;29803;51.048;4.686;2023-04-06T09:15:18;101590.16;;;7.35;100.00
44140;BME280;29803;51.048;4.686;2023-04-06T09:17:48;101597.78;;;7.39;100.00
44140;BME280;29803;51.048;4.686;2023-04-06T09:20:34;101593.41;;;7.38;100.00
44140;BME280;29803;51.048;4.686;2023-04-06T09:23:05;101595.63;;;7.33;100.00
44140;BME280;29803;51.048;4.686;2023-04-06T09:25:35;101594.81;;;7.42;100.00
44140;BME280;29803;51.048;4.686;2023-04-06T09:28:06;101592.94;;;7.33;100.00
44140;BME280;29803;51.048;4.686;2023-04-06T09:30:47;101592.16;;;7.42;100.00
44140;BME280;29803;51.048;4.686;2023-04-06T09:33:38;101588.72;;;7.51;100.00
44140;BME280;29803;51.048;4.686;2023-04-06T09:36:10;101595.88;;;7.51;100.00
44140;BME280;29803;51.048;4.686;2023-04-06T09:38:54;101587.56;;;7.44;100.00
44140;BME280;29803;51.048;4.686;2023-04-06T09:41:27;101579.41;;;7.46;100.00
44140;BME280;29803;51.048;4.686;2023-04-06T09:44:14;101575.91;;;7.45;100.00
44140;BME280;29803;51.048;4.686;2023-04-06T09:46:45;101586.44;;;7.47;100.00
44140;BME280;29803;51.048;4.686;2023-04-06T09:49:17;101582.78;;;7.48;100.00
44140;BME280;29803;51.048;4.686;2023-04-06T09:51:55;101584.03;;;7.44;100.00
44140;BME280;29803;51.048;4.686;2023-04-06T09:54:29;101579.09;;;7.39;100.00
44140;BME280;29803;51.048;4.686;2023-04-06T10:00:09;101568.66;;;7.36;100.00
44140;BME280;29803;51.048;4.686;2023-04-06T10:07:59;101562.59;;;7.34;100.00
44140;BME280;29803;51.048;4.686;2023-04-06T10:10:32;101565.72;;;7.39;100.00
44140;BME280;29803;51.048;4.686;2023-04-06T10:13:03;101572.06;;;7.38;100.00
44140;BME280;29803;51.048;4.686;2023-04-06T10:15:35;101555.53;;;7.44;100.00
44140;BME280;29803;51.048;4.686;2023-04-06T10:18:05;101566.19;;;7.44;100.00
44140;BME280;29803;51.048;4.686;2023-04-06T10:20:51;101564.00;;;7.49;100.00
44140;BME280;29803;51.048;4.686;2023-04-06T10:23:31;101562.47;;;7.57;100.00
44140;BME280;29803;51.048;4.686;2023-04-06T10:26:03;101558.50;;;7.72;100.00
44140;BME280;29803;51.048;4.686;2023-04-06T10:28:35;101552.66;;;7.78;100.00
44140;BME280;29803;51.048;4.686;2023-04-06T10:31:06;101556.63;;;7.63;100.00
44140;BME280;29803;51.048;4.686;2023-04-06T10:33:37;101556.22;;;7.67;100.00
44140;BME280;29803;51.048;4.686;2023-04-06T10:36:11;101550.03;;;7.67;100.00
44140;BME280;29803;51.048;4.686;2023-04-06T10:38:42;101550.56;;;7.61;100.00
44140;BME280;29803;51.048;4.686;2023-04-06T10:41:16;101551.25;;;7.53;100.00
44140;BME280;29803;51.048;4.686;2023-04-06T10:43:55;101555.28;;;7.68;100.00
44140;BME280;29803;51.048;4.686;2023-04-06T10:46:29;101545.94;;;7.63;100.00
44140;BME280;29803;51.048;4.686;2023-04-06T10:49:11;101543.78;;;7.77;100.00
44140;BME280;29803;51.048;4.686;2023-04-06T10:51:43;101542.31;;;7.64;100.00
44140;BME280;29803;51.048;4.686;2023-04-06T10:54:13;101531.09;;;7.70;100.00
44140;BME280;29803;51.048;4.686;2023-04-06T10:56:45;101546.41;;;7.68;100.00
44140;BME280;29803;51.048;4.686;2023-04-06T10:59:32;101532.41;;;7.55;100.00
44140;BME280;29803;51.048;4.686;2023-04-06T11:02:02;101523.16;;;7.59;100.00
44140;BME280;29803;51.048;4.686;2023-04-06T11:04:33;101531.03;;;7.60;100.00
44140;BME280;29803;51.048;4.686;2023-04-06T11:07:03;101538.06;;;7.61;100.00
44140;BME280;29803;51.048;4.686;2023-04-06T11:09:34;101520.59;;;7.57;100.00
44140;BME280;29803;51.048;4.686;2023-04-06T11:12:06;101522.56;;;7.55;100.00
44140;BME280;29803;51.048;4.686;2023-04-06T11:14:37;101532.06;;;7.48;100.00
44140;BME280;29803;51.048;4.686;2023-04-06T11:17:09;101525.31;;;7.44;100.00
44140;BME280;29803;51.048;4.686;2023-04-06T11:19:39;101511.19;;;7.53;100.00
44140;BME280;29803;51.048;4.686;2023-04-06T11:22:10;101524.53;;;7.53;100.00
44140;BME280;29803;51.048;4.686;2023-04-06T11:24:40;101512.59;;;7.57;100.00
44140;BME280;29803;51.048;4.686;2023-04-06T11:27:11;101517.81;;;7.59;100.00
44140;BME280;29803;51.048;4.686;2023-04-06T11:29:43;101511.28;;;7.51;100.00
44140;BME280;29803;51.048;4.686;2023-04-06T11:35:24;101505.44;;;7.58;100.00
44140;BME280;29803;51.048;4.686;2023-04-06T11:37:54;101495.63;;;7.58;100.00
44140;BME280;29803;51.048;4.686;2023-04-06T11:40:25;101502.75;;;7.58;100.00
44140;BME280;29803;51.048;4.686;2023-04-06T11:42:58;101493.41;;;7.63;100.00
44140;BME280;29803;51.048;4.686;2023-04-06T11:45:39;101488.69;;;7.56;100.00
44140;BME280;29803;51.048;4.686;2023-04-06T11:48:28;101490.59;;;7.65;100.00
44140;BME280;29803;51.048;4.686;2023-04-06T11:50:59;101485.63;;;7.81;100.00
44140;BME280;29803;51.048;4.686;2023-04-06T11:53:31;101478.50;;;7.91;100.00
44140;BME280;29803;51.048;4.686;2023-04-06T11:56:03;101480.47;;;7.89;100.00
44140;BME280;29803;51.048;4.686;2023-04-06T11:58:34;101472.84;;;7.85;100.00
44140;BME280;29803;51.048;4.686;2023-04-06T12:01:05;101474.13;;;7.90;100.00
44140;BME280;29803;51.048;4.686;2023-04-06T12:03:35;101483.38;;;7.86;100.00
44140;BME280;29803;51.048;4.686;2023-04-06T12:06:06;101475.81;;;7.91;100.00
44140;BME280;29803;51.048;4.686;2023-04-06T12:08:36;101477.50;;;7.92;100.00
44140;BME280;29803;51.048;4.686;2023-04-06T12:11:07;101472.91;;;7.94;100.00
44140;BME280;29803;51.048;4.686;2023-04-06T12:13:37;101473.88;;;8.03;100.00
44140;BME280;29803;51.048;4.686;2023-04-06T12:16:08;101481.91;;;7.93;100.00
44140;BME280;29803;51.048;4.686;2023-04-06T12:18:39;101472.72;;;7.86;100.00
44140;BME280;29803;51.048;4.686;2023-04-06T12:21:09;101473.44;;;7.98;100.00
44140;BME280;29803;51.048;4.686;2023-04-06T12:23:40;101479.22;;;8.03;100.00
44140;BME280;29803;51.048;4.686;2023-04-06T12:26:11;101465.34;;;8.09;100.00
44140;BME280;29803;51.048;4.686;2023-04-06T12:28:41;101465.19;;;8.01;100.00
44140;BME280;29803;51.048;4.686;2023-04-06T12:31:30;101469.94;;;7.97;100.00
44140;BME280;29803;51.048;4.686;2023-04-06T12:34:02;101461.91;;;7.97;100.00
44140;BME280;29803;51.048;4.686;2023-04-06T12:36:33;101467.84;;;8.01;100.00
44140;BME280;29803;51.048;4.686;2023-04-06T12:39:04;101451.13;;;7.99;100.00
44140;BME280;29803;51.048;4.686;2023-04-06T12:41:35;101451.66;;;8.02;100.00
44140;BME280;29803;51.048;4.686;2023-04-06T12:44:06;101442.66;;;7.94;100.00
44140;BME280;29803;51.048;4.686;2023-04-06T12:46:36;101450.88;;;8.12;100.00
44140;BME280;29803;51.048;4.686;2023-04-06T12:49:07;101451.44;;;8.15;100.00
44140;BME280;29803;51.048;4.686;2023-04-06T12:51:37;101441.34;;;8.19;100.00
44140;BME280;29803;51.048;4.686;2023-04-06T12:54:08;101442.41;;;8.07;100.00
44140;BME280;29803;51.048;4.686;2023-04-06T12:56:38;101441.84;;;8.13;100.00
44140;BME280;29803;51.048;4.686;2023-04-06T12:59:09;101442.63;;;8.24;100.00
44140;BME280;29803;51.048;4.686;2023-04-06T13:01:40;101435.00;;;8.20;100.00
44140;BME280;29803;51.048;4.686;2023-04-06T13:04:10;101440.38;;;8.29;100.00
44140;BME280;29803;51.048;4.686;2023-04-06T13:06:41;101434.72;;;8.23;100.00
44140;BME280;29803;51.048;4.686;2023-04-06T13:09:11;101436.53;;;8.22;100.00
44140;BME280;29803;51.048;4.686;2023-04-06T13:11:42;101436.81;;;8.10;100.00
44140;BME280;29803;51.048;4.686;2023-04-06T13:14:12;101426.94;;;8.00;100.00
44140;BME280;29803;51.048;4.686;2023-04-06T13:16:43;101433.38;;;7.98;100.00
44140;BME280;29803;51.048;4.686;2023-04-06T13:19:13;101430.03;;;8.05;100.00
44140;BME280;29803;51.048;4.686;2023-04-06T13:21:45;101431.69;;;7.97;100.00
44140;BME280;29803;51.048;4.686;2023-04-06T13:24:15;101422.69;;;7.88;100.00